Time;durP1;ratioP1;P1;durP2;ratioP2;P2;SDS_P1;SDS_P2;PMS_P1;PMS_P2;Temp;Humidity;BMP_temperature;BMP_pressure;BME280_temperature;BME280_humidity;BME280_pressure;Samples;Min_cycle;Max_cycle;Signal;HPM_P1;HPM_P2
2023/08/10 00:00:08;;;;;;;5.32;2.75;;;11.20;99.90;;;;;;5020111;28;20053;-84
2023/08/10 00:02:33;;;;;;;5.22;2.63;;;11.20;99.90;;;;;;5024489;28;20113;-84
2023/08/10 00:04:59;;;;;;;5.30;2.10;;;11.20;99.90;;;;;;5026188;28;20049;-83
2023/08/10 00:07:24;;;;;;;6.25;2.10;;;11.10;99.90;;;;;;5029022;28;20666;-84
2023/08/10 00:09:50;;;;;;;3.42;1.95;;;11.10;99.90;;;;;;5025981;28;20116;-83
2023/08/10 00:12:15;;;;;;;3.20;2.13;;;11.10;99.90;;;;;;5022635;28;20033;-83
2023/08/10 00:14:41;;;;;;;4.32;2.92;;;11.10;99.90;;;;;;5013222;28;20029;-83
2023/08/10 00:17:07;;;;;;;6.82;2.55;;;11.00;99.90;;;;;;5014809;28;20084;-84
2023/08/10 00:19:32;;;;;;;5.35;2.20;;;11.00;99.90;;;;;;5024964;28;20036;-83
2023/08/10 00:21:58;;;;;;;3.65;2.33;;;11.00;99.90;;;;;;5027367;28;20128;-83
2023/08/10 00:24:24;;;;;;;7.55;2.33;;;11.00;99.90;;;;;;5024500;28;20026;-83
2023/08/10 00:26:49;;;;;;;5.88;2.30;;;11.00;99.90;;;;;;5032763;28;20755;-83
2023/08/10 00:29:15;;;;;;;4.82;1.83;;;10.90;99.90;;;;;;5026478;28;20028;-83
2023/08/10 00:31:40;;;;;;;3.85;1.40;;;10.90;99.90;;;;;;5034265;28;20034;-83
2023/08/10 00:34:06;;;;;;;3.00;2.28;;;10.90;99.90;;;;;;5026730;28;20528;-82
2023/08/10 00:36:31;;;;;;;8.15;2.28;;;10.90;99.90;;;;;;5016931;28;20092;-83
2023/08/10 00:38:57;;;;;;;6.82;2.42;;;10.80;99.90;;;;;;5030122;28;20024;-83
2023/08/10 00:41:23;;;;;;;3.65;2.00;;;10.80;99.90;;;;;;5033090;28;20127;-83
2023/08/10 00:43:49;;;;;;;5.43;2.42;;;10.80;99.90;;;;;;5036306;28;20029;-84
2023/08/10 00:46:14;;;;;;;3.05;1.80;;;10.80;99.90;;;;;;5020249;28;20010;-84
2023/08/10 00:48:40;;;;;;;5.15;2.20;;;10.70;99.90;;;;;;5024819;28;20175;-84
2023/08/10 00:51:06;;;;;;;4.43;2.10;;;10.70;99.90;;;;;;5021044;28;20045;-84
2023/08/10 00:53:32;;;;;;;4.15;2.55;;;10.70;99.90;;;;;;5024606;28;20084;-84
2023/08/10 00:55:59;;;;;;;6.20;2.42;;;10.60;99.90;;;;;;5026307;28;20025;-85
2023/08/10 00:58:26;;;;;;;4.53;2.40;;;10.60;99.90;;;;;;5024670;28;20083;-83
2023/08/10 01:00:52;;;;;;;3.80;2.25;;;10.60;99.90;;;;;;5022778;28;20048;-84
2023/08/10 01:03:18;;;;;;;6.95;2.47;;;10.50;99.90;;;;;;5018132;28;20089;-84
2023/08/10 01:05:50;;;;;;;4.40;1.88;;;10.50;99.90;;;;;;5025941;28;20040;-85
2023/08/10 01:08:54;;;;;;;3.83;1.67;;;10.50;99.90;;;;;;5028754;28;20028;-84
2023/08/10 01:11:23;;;;;;;4.80;2.33;;;10.50;99.90;;;;;;5023113;28;20021;-82
2023/08/10 01:14:15;;;;;;;6.72;1.80;;;10.50;99.90;;;;;;5024574;28;20253;-82
2023/08/10 01:16:42;;;;;;;4.13;2.03;;;10.40;99.90;;;;;;5025983;28;20025;-84
2023/08/10 01:19:32;;;;;;;4.18;2.53;;;10.40;99.90;;;;;;5027897;28;20022;-83
2023/08/10 01:22:35;;;;;;;3.75;2.30;;;10.40;99.90;;;;;;5018017;28;20488;-84
2023/08/10 01:25:06;;;;;;;2.47;1.83;;;10.40;99.90;;;;;;5027552;28;20021;-84
2023/08/10 01:27:33;;;;;;;4.07;2.55;;;10.30;99.90;;;;;;5025853;28;20107;-84
2023/08/10 01:30:00;;;;;;;5.55;2.00;;;10.30;99.90;;;;;;5023407;28;20213;-85
2023/08/10 01:32:30;;;;;;;5.63;2.03;;;10.30;99.90;;;;;;5028248;28;20111;-83
2023/08/10 01:34:56;;;;;;;4.38;1.98;;;10.30;99.90;;;;;;5022713;28;20026;-84
2023/08/10 01:37:22;;;;;;;4.55;1.80;;;10.30;99.90;;;;;;5024722;28;20021;-85
2023/08/10 01:39:48;;;;;;;5.35;2.20;;;10.30;99.90;;;;;;5027201;28;20046;-83
2023/08/10 01:42:14;;;;;;;2.17;1.90;;;10.20;99.90;;;;;;5028235;28;20025;-84
2023/08/10 01:44:40;;;;;;;4.07;2.05;;;10.20;99.90;;;;;;5026371;28;20059;-84
2023/08/10 01:47:22;;;;;;;5.05;2.25;;;10.20;99.90;;;;;;5018648;28;20045;-84
2023/08/10 01:49:54;;;;;;;2.92;1.98;;;10.20;99.90;;;;;;5029372;28;20026;-85
2023/08/10 01:52:24;;;;;;;5.05;2.42;;;10.10;99.90;;;;;;5020239;28;20196;-83
2023/08/10 01:54:49;;;;;;;4.85;1.90;;;10.10;99.90;;;;;;5022414;28;20121;-85
2023/08/10 01:57:15;;;;;;;7.00;2.22;;;10.10;99.90;;;;;;5024314;28;20041;-85
2023/08/10 01:59:41;;;;;;;4.93;2.22;;;10.10;99.90;;;;;;5031565;28;20029;-83
2023/08/10 02:02:06;;;;;;;3.88;2.15;;;10.10;99.90;;;;;;5023124;28;20030;-84
2023/08/10 02:04:32;;;;;;;9.57;2.83;;;10.10;99.90;;;;;;5029115;28;20067;-85
2023/08/10 02:06:57;;;;;;;1.77;1.67;;;10.10;99.90;;;;;;5025978;28;20029;-84
2023/08/10 02:09:23;;;;;;;4.50;1.80;;;10.20;99.90;;;;;;5023416;28;20018;-84
2023/08/10 02:11:49;;;;;;;4.63;2.00;;;10.20;99.90;;;;;;5028401;28;20044;-84
2023/08/10 02:14:14;;;;;;;5.38;1.90;;;10.20;99.90;;;;;;5026970;28;20030;-84
2023/08/10 02:16:40;;;;;;;3.35;2.17;;;10.20;99.90;;;;;;5027842;28;20121;-84
2023/08/10 02:19:05;;;;;;;3.45;2.10;;;10.20;99.90;;;;;;5029758;28;20084;-82
2023/08/10 02:21:31;;;;;;;4.03;2.25;;;10.20;99.90;;;;;;5026248;28;20022;-83
2023/08/10 02:23:57;;;;;;;7.13;2.47;;;10.30;99.90;;;;;;5029729;28;20119;-84
2023/08/10 02:26:22;;;;;;;4.90;1.77;;;10.30;99.90;;;;;;5025214;28;20044;-83
2023/08/10 02:28:48;;;;;;;4.72;1.70;;;10.30;99.90;;;;;;5021453;28;20018;-83
2023/08/10 02:31:13;;;;;;;4.47;2.05;;;10.30;99.90;;;;;;5029390;28;20029;-84
2023/08/10 02:33:39;;;;;;;8.00;2.63;;;10.30;99.90;;;;;;5027450;28;20060;-83
2023/08/10 02:36:05;;;;;;;2.53;2.15;;;10.30;99.90;;;;;;5027945;28;20116;-84
2023/08/10 02:38:30;;;;;;;3.28;1.88;;;10.30;99.90;;;;;;5018156;28;20467;-84
2023/08/10 02:40:56;;;;;;;3.35;2.33;;;10.30;99.90;;;;;;5032985;28;20085;-84
2023/08/10 02:43:21;;;;;;;4.25;2.55;;;10.30;99.90;;;;;;5020981;28;20025;-85
2023/08/10 02:45:47;;;;;;;4.88;2.80;;;10.30;99.90;;;;;;5029892;28;20014;-85
2023/08/10 02:48:12;;;;;;;4.97;2.08;;;10.20;99.90;;;;;;5025108;28;20029;-84
2023/08/10 02:50:38;;;;;;;1.98;1.85;;;10.20;99.90;;;;;;5028431;28;20077;-85
2023/08/10 02:53:05;;;;;;;4.90;1.88;;;10.20;99.90;;;;;;5030862;28;20042;-85
2023/08/10 02:55:30;;;;;;;3.28;2.10;;;10.20;99.90;;;;;;5026639;28;20026;-84
2023/08/10 02:57:56;;;;;;;6.53;2.97;;;10.10;99.90;;;;;;5031544;28;20032;-84
2023/08/10 03:00:22;;;;;;;7.57;2.83;;;10.10;99.90;;;;;;5025774;28;20220;-85
2023/08/10 03:02:51;;;;;;;5.30;2.30;;;10.10;99.90;;;;;;5023230;28;20080;-85
2023/08/10 03:05:19;;;;;;;5.03;2.45;;;10.10;99.90;;;;;;5023805;28;20037;-84
2023/08/10 03:07:45;;;;;;;5.28;1.95;;;10.10;99.90;;;;;;5026201;28;20393;-85
2023/08/10 03:10:11;;;;;;;5.63;1.77;;;10.00;99.90;;;;;;5027379;28;20025;-85
2023/08/10 03:12:37;;;;;;;3.50;2.10;;;10.00;99.90;;;;;;5022929;28;20484;-84
2023/08/10 03:15:08;;;;;;;3.80;1.92;;;10.00;99.90;;;;;;5030676;28;20030;-84
2023/08/10 03:17:34;;;;;;;3.63;2.00;;;10.00;99.90;;;;;;5026673;28;20467;-84
2023/08/10 03:19:59;;;;;;;2.22;1.52;;;10.00;99.90;;;;;;5028257;28;20049;-84
2023/08/10 03:22:27;;;;;;;7.82;2.10;;;10.00;99.90;;;;;;5027023;28;20047;-85
2023/08/10 03:24:53;;;;;;;4.47;1.98;;;10.00;99.90;;;;;;5029516;28;20044;-85
2023/08/10 03:27:19;;;;;;;10.23;2.25;;;9.90;99.90;;;;;;5029866;28;20453;-84
2023/08/10 03:29:44;;;;;;;3.60;1.88;;;10.00;99.90;;;;;;5028701;28;20033;-84
2023/08/10 03:32:10;;;;;;;4.65;2.10;;;10.00;99.90;;;;;;5029797;28;20032;-83
2023/08/10 03:34:36;;;;;;;5.03;2.08;;;9.90;99.90;;;;;;5028607;28;20022;-85
2023/08/10 03:37:02;;;;;;;3.55;2.13;;;9.90;99.90;;;;;;5034425;28;20029;-84
2023/08/10 03:39:28;;;;;;;3.65;1.80;;;10.00;99.90;;;;;;5033162;28;20021;-84
2023/08/10 03:41:53;;;;;;;4.93;1.80;;;10.00;99.90;;;;;;5034553;28;20036;-84
2023/08/10 03:44:19;;;;;;;1.88;1.75;;;10.00;99.90;;;;;;5033460;28;20133;-85
2023/08/10 03:46:44;;;;;;;3.92;1.92;;;10.00;99.90;;;;;;5030708;28;20538;-85
2023/08/10 03:49:10;;;;;;;4.07;2.00;;;10.00;99.90;;;;;;5031824;28;20112;-84
2023/08/10 03:51:36;;;;;;;3.00;1.80;;;10.10;99.90;;;;;;5031864;28;20033;-84
2023/08/10 03:54:01;;;;;;;4.75;1.88;;;10.10;99.90;;;;;;5032121;28;20034;-84
2023/08/10 03:56:27;;;;;;;4.80;2.35;;;10.10;99.90;;;;;;5034178;28;20040;-84
2023/08/10 03:58:52;;;;;;;4.90;1.98;;;10.10;99.90;;;;;;5028877;28;20104;-83
2023/08/10 04:01:19;;;;;;;3.78;1.75;;;10.10;99.90;;;;;;5030427;28;20038;-84
2023/08/10 04:03:44;;;;;;;2.00;1.80;;;10.10;99.90;;;;;;5028989;28;20032;-85
2023/08/10 04:06:10;;;;;;;5.00;2.55;;;10.20;99.90;;;;;;5030939;28;20734;-84
2023/08/10 04:08:38;;;;;;;4.53;2.22;;;10.20;99.90;;;;;;5030414;28;20548;-84
2023/08/10 04:11:04;;;;;;;4.97;2.03;;;10.20;99.90;;;;;;5029947;28;20153;-83
2023/08/10 04:13:30;;;;;;;2.85;1.75;;;10.20;99.90;;;;;;5036738;28;20504;-84
2023/08/10 04:15:56;;;;;;;5.38;2.10;;;10.30;99.90;;;;;;5030448;28;20037;-85
2023/08/10 04:18:21;;;;;;;4.32;2.22;;;10.20;99.90;;;;;;5035312;28;20506;-83
2023/08/10 04:20:47;;;;;;;2.85;1.65;;;10.30;99.90;;;;;;5034336;28;20120;-84
2023/08/10 04:23:13;;;;;;;2.80;1.70;;;10.30;99.90;;;;;;5033667;28;20112;-85
2023/08/10 04:25:38;;;;;;;4.35;2.20;;;10.30;99.90;;;;;;5030886;28;20342;-85
2023/08/10 04:28:05;;;;;;;6.97;2.60;;;10.40;99.90;;;;;;5028401;28;20083;-83
2023/08/10 04:30:30;;;;;;;4.95;2.05;;;10.40;99.90;;;;;;5033429;28;20041;-85
2023/08/10 04:32:57;;;;;;;3.83;2.10;;;10.40;99.90;;;;;;5027937;28;20045;-84
2023/08/10 04:35:23;;;;;;;5.63;1.90;;;10.40;99.90;;;;;;5033258;28;20040;-84
2023/08/10 04:37:49;;;;;;;4.55;1.90;;;10.50;99.90;;;;;;5027053;28;20044;-85
2023/08/10 04:40:15;;;;;;;5.70;2.00;;;10.50;99.90;;;;;;5021761;28;20556;-84
2023/08/10 04:42:40;;;;;;;7.40;2.20;;;10.50;99.90;;;;;;5031201;28;20093;-85
2023/08/10 04:45:09;;;;;;;9.00;2.13;;;10.60;99.90;;;;;;5025447;28;20022;-84
2023/08/10 04:47:35;;;;;;;2.33;1.65;;;10.60;99.90;;;;;;5024037;28;20048;-84
2023/08/10 04:50:01;;;;;;;2.88;1.95;;;10.60;99.90;;;;;;5026549;28;20018;-83
2023/08/10 04:52:27;;;;;;;6.35;1.70;;;10.70;99.90;;;;;;5035290;28;20022;-84
2023/08/10 04:54:52;;;;;;;5.18;1.70;;;10.70;99.90;;;;;;5026285;28;20111;-83
2023/08/10 04:57:18;;;;;;;5.30;1.65;;;10.70;99.90;;;;;;5028332;28;20104;-84
2023/08/10 04:59:44;;;;;;;3.75;1.83;;;10.80;99.90;;;;;;5027751;28;20034;-85
2023/08/10 05:02:09;;;;;;;6.80;2.05;;;10.80;99.90;;;;;;5021380;28;20056;-83
2023/08/10 05:04:35;;;;;;;8.18;2.47;;;10.80;99.90;;;;;;5035444;28;20017;-83
2023/08/10 05:07:01;;;;;;;8.32;2.22;;;10.90;99.90;;;;;;5041151;28;20041;-81
2023/08/10 05:09:26;;;;;;;5.72;1.90;;;10.90;99.90;;;;;;5044019;28;20040;-82
2023/08/10 05:11:52;;;;;;;5.68;1.77;;;10.90;99.90;;;;;;5036451;28;20030;-83
2023/08/10 05:14:18;;;;;;;5.15;2.20;;;11.00;99.90;;;;;;5023916;28;20201;-83
2023/08/10 05:16:43;;;;;;;4.85;2.03;;;11.00;99.90;;;;;;5025495;28;20115;-84
2023/08/10 05:19:09;;;;;;;5.10;1.80;;;11.00;99.90;;;;;;5027133;28;20026;-83
2023/08/10 05:21:35;;;;;;;3.90;1.73;;;11.10;99.90;;;;;;5026330;28;20092;-84
2023/08/10 05:24:00;;;;;;;5.38;1.85;;;11.10;99.90;;;;;;5028439;28;20025;-83
2023/08/10 05:26:27;;;;;;;5.97;1.90;;;11.10;99.90;;;;;;5020404;28;20088;-84
2023/08/10 05:28:53;;;;;;;5.00;1.95;;;11.20;99.90;;;;;;5026429;28;20105;-83
2023/08/10 05:31:18;;;;;;;6.45;2.38;;;11.20;99.90;;;;;;5024796;28;20030;-84
2023/08/10 05:33:44;;;;;;;6.93;1.67;;;11.30;99.90;;;;;;5027611;28;20036;-84
2023/08/10 05:36:09;;;;;;;5.22;2.13;;;11.30;99.90;;;;;;5027293;28;20033;-83
2023/08/10 05:38:37;;;;;;;8.75;1.77;;;11.40;99.90;;;;;;5024359;28;20077;-83
2023/08/10 05:41:03;;;;;;;8.88;2.10;;;11.40;99.90;;;;;;5030658;28;20076;-84
2023/08/10 05:43:29;;;;;;;5.68;1.70;;;11.50;99.90;;;;;;5024378;28;20049;-84
2023/08/10 05:45:54;;;;;;;6.72;1.67;;;11.50;99.90;;;;;;5021427;28;20026;-83
2023/08/10 05:48:20;;;;;;;3.03;1.63;;;11.60;99.90;;;;;;5023120;28;20030;-82
2023/08/10 05:50:45;;;;;;;4.47;1.60;;;11.60;99.90;;;;;;5023789;28;20025;-83
2023/08/10 05:53:11;;;;;;;5.45;1.95;;;11.70;99.90;;;;;;5027940;28;20057;-82
2023/08/10 05:55:36;;;;;;;4.25;1.40;;;11.70;99.90;;;;;;5022414;28;20046;-84
2023/08/10 05:58:02;;;;;;;3.47;1.85;;;11.80;99.90;;;;;;5027989;28;20477;-84
2023/08/10 06:00:28;;;;;;;3.22;1.50;;;11.80;99.90;;;;;;5021153;28;20371;-83
2023/08/10 06:02:54;;;;;;;3.50;1.10;;;11.80;99.90;;;;;;5015949;28;20029;-84
2023/08/10 06:05:20;;;;;;;2.63;1.25;;;11.80;99.90;;;;;;5021955;28;20596;-84
2023/08/10 06:07:47;;;;;;;3.13;1.38;;;11.90;99.90;;;;;;5011564;28;20116;-84
2023/08/10 06:10:14;;;;;;;4.32;1.90;;;11.90;99.90;;;;;;5021519;28;20025;-84
2023/08/10 06:12:41;;;;;;;4.13;1.90;;;12.00;99.90;;;;;;5019830;28;20022;-84
2023/08/10 06:15:08;;;;;;;3.28;1.55;;;12.00;99.90;;;;;;5020844;28;20091;-83
2023/08/10 06:17:33;;;;;;;5.65;1.60;;;12.10;99.90;;;;;;5019051;28;20109;-84
2023/08/10 06:19:59;;;;;;;5.28;1.63;;;12.20;99.90;;;;;;5020505;28;20157;-84
2023/08/10 06:22:24;;;;;;;4.82;1.73;;;12.20;99.90;;;;;;5019635;28;20083;-83
2023/08/10 06:24:50;;;;;;;7.57;2.15;;;12.30;99.90;;;;;;5021877;28;20634;-84
2023/08/10 06:27:16;;;;;;;5.07;2.20;;;12.40;99.90;;;;;;5020623;28;20041;-82
2023/08/10 06:29:41;;;;;;;9.00;2.25;;;12.40;99.90;;;;;;5018679;28;20022;-83
2023/08/10 06:32:08;;;;;;;3.28;1.83;;;12.60;99.90;;;;;;5022907;28;20033;-84
2023/08/10 06:34:34;;;;;;;6.63;2.45;;;12.60;99.90;;;;;;5018636;28;20508;-83
2023/08/10 06:36:59;;;;;;;6.47;1.98;;;12.70;99.90;;;;;;5024847;28;20022;-85
2023/08/10 06:39:27;;;;;;;2.90;1.45;;;12.80;99.90;;;;;;5020106;28;20396;-83
2023/08/10 06:41:53;;;;;;;6.72;2.10;;;12.90;99.90;;;;;;5021178;28;20029;-84
2023/08/10 06:44:19;;;;;;;4.25;1.50;;;12.90;99.90;;;;;;5020492;28;20503;-84
2023/08/10 06:46:45;;;;;;;5.68;1.98;;;12.90;99.90;;;;;;5018331;28;20104;-84
2023/08/10 06:49:10;;;;;;;8.05;2.05;;;13.00;99.90;;;;;;5019952;28;20049;-83
2023/08/10 06:51:36;;;;;;;6.28;1.80;;;13.00;99.90;;;;;;5020350;28;20018;-84
2023/08/10 06:54:01;;;;;;;7.55;3.33;;;13.10;99.90;;;;;;5018613;28;20112;-82
2023/08/10 06:56:27;;;;;;;4.20;1.88;;;13.20;99.90;;;;;;5021179;28;20029;-85
2023/08/10 06:58:53;;;;;;;2.63;1.50;;;13.20;99.90;;;;;;5020374;28;20072;-84
2023/08/10 07:01:18;;;;;;;3.42;1.42;;;13.30;99.90;;;;;;5015912;28;20041;-85
2023/08/10 07:03:44;;;;;;;4.40;1.55;;;13.30;99.90;;;;;;5019700;28;20061;-84
2023/08/10 07:06:09;;;;;;;4.93;1.67;;;13.30;99.90;;;;;;5020174;28;20040;-85
2023/08/10 07:08:35;;;;;;;5.72;1.88;;;13.40;99.90;;;;;;5021189;28;20029;-84
2023/08/10 07:11:03;;;;;;;6.07;2.38;;;13.50;99.90;;;;;;5020571;28;20082;-84
2023/08/10 07:13:29;;;;;;;9.05;2.63;;;13.80;99.90;;;;;;5028855;28;20037;-84
2023/08/10 07:15:55;;;;;;;3.75;1.50;;;14.00;99.90;;;;;;5020740;28;20030;-84
2023/08/10 07:18:20;;;;;;;3.85;1.65;;;14.10;99.90;;;;;;5028090;28;20022;-81
2023/08/10 07:20:46;;;;;;;4.03;1.70;;;14.30;99.90;;;;;;5023221;28;20030;-85
2023/08/10 07:23:14;;;;;;;6.43;2.00;;;14.50;99.90;;;;;;5028172;28;20030;-83
2023/08/10 07:25:39;;;;;;;6.32;2.00;;;14.70;99.90;;;;;;5023260;28;20025;-83
2023/08/10 07:28:06;;;;;;;4.93;1.88;;;14.80;99.90;;;;;;5024077;28;20036;-85
2023/08/10 07:30:31;;;;;;;3.50;1.38;;;14.90;99.90;;;;;;5027035;28;20033;-84
2023/08/10 07:33:00;;;;;;;5.18;2.00;;;15.00;99.90;;;;;;5022505;28;20033;-84
2023/08/10 07:35:26;;;;;;;7.05;1.83;;;15.10;99.90;;;;;;5027095;28;20021;-86
2023/08/10 07:37:52;;;;;;;4.50;1.50;;;15.30;99.90;;;;;;5021535;28;20041;-84
2023/08/10 07:40:17;;;;;;;10.55;1.85;;;15.40;99.90;;;;;;5028516;28;20025;-85
2023/08/10 07:42:43;;;;;;;2.85;1.23;;;15.40;99.90;;;;;;5017640;28;20024;-83
2023/08/10 07:45:11;;;;;;;6.25;1.90;;;15.50;99.90;;;;;;5020535;28;20070;-85
2023/08/10 07:47:38;;;;;;;3.83;1.58;;;15.60;99.90;;;;;;5026938;28;20028;-83
2023/08/10 07:50:05;;;;;;;1.67;0.85;;;15.70;99.90;;;;;;5020924;28;20068;-82
2023/08/10 07:52:31;;;;;;;8.60;1.45;;;15.80;99.90;;;;;;5027378;28;20063;-85
2023/08/10 07:54:56;;;;;;;7.70;2.15;;;15.90;99.90;;;;;;5019811;28;20033;-84
2023/08/10 07:57:22;;;;;;;5.75;1.50;;;15.80;99.90;;;;;;5022498;28;20018;-84
2023/08/10 07:59:47;;;;;;;4.45;1.58;;;15.80;99.90;;;;;;5025794;28;20044;-82
2023/08/10 08:02:13;;;;;;;3.30;1.15;;;15.90;99.90;;;;;;5019911;28;20111;-84
2023/08/10 08:04:39;;;;;;;3.72;1.65;;;16.10;99.90;;;;;;5027554;28;20064;-81
2023/08/10 08:07:04;;;;;;;4.25;1.23;;;16.30;99.90;;;;;;5021902;28;20030;-83
2023/08/10 08:09:30;;;;;;;5.47;1.65;;;16.40;99.90;;;;;;5021332;28;20420;-83
2023/08/10 08:11:55;;;;;;;7.40;1.30;;;16.50;99.90;;;;;;5023542;28;20117;-82
2023/08/10 08:14:21;;;;;;;7.82;1.90;;;16.50;99.90;;;;;;5013685;28;20022;-85
2023/08/10 08:16:46;;;;;;;3.83;1.17;;;16.40;99.90;;;;;;5023434;28;20484;-84
2023/08/10 08:19:15;;;;;;;7.05;1.48;;;16.50;99.90;;;;;;5022423;28;20026;-82
2023/08/10 08:21:41;;;;;;;3.75;0.85;;;16.50;99.90;;;;;;5021437;28;20021;-83
2023/08/10 08:24:07;;;;;;;4.07;1.38;;;16.50;99.90;;;;;;5021752;28;20030;-84
2023/08/10 08:26:33;;;;;;;4.10;1.20;;;16.40;99.90;;;;;;5022379;28;20026;-83
2023/08/10 08:28:59;;;;;;;8.00;1.20;;;16.60;99.90;;;;;;5026309;28;20134;-83
2023/08/10 08:31:28;;;;;;;4.88;1.35;;;16.50;99.90;;;;;;5020308;28;20034;-84
2023/08/10 08:33:53;;;;;;;3.70;1.40;;;16.40;99.90;;;;;;5023849;28;20468;-82
2023/08/10 08:36:19;;;;;;;5.55;1.67;;;16.40;99.90;;;;;;5022753;28;20157;-82
2023/08/10 08:38:45;;;;;;;4.88;1.58;;;16.50;99.90;;;;;;5025000;28;20025;-83
2023/08/10 08:41:10;;;;;;;5.97;1.65;;;16.80;99.90;;;;;;5024474;28;20041;-81
2023/08/10 08:43:37;;;;;;;6.38;1.45;;;17.00;99.90;;;;;;5020163;28;20037;-84
2023/08/10 08:46:04;;;;;;;5.20;1.25;;;17.30;99.90;;;;;;5024647;28;20025;-84
2023/08/10 08:48:30;;;;;;;3.15;0.88;;;17.30;99.90;;;;;;5020312;28;20385;-84
2023/08/10 08:50:57;;;;;;;6.43;2.03;;;17.30;99.90;;;;;;5023179;28;20029;-84
2023/08/10 08:53:24;;;;;;;3.30;1.20;;;17.40;99.90;;;;;;5021911;28;20022;-84
2023/08/10 08:55:49;;;;;;;9.95;1.40;;;17.30;99.90;;;;;;5008429;28;20025;-81
2023/08/10 08:58:16;;;;;;;4.95;1.27;;;17.50;99.90;;;;;;5011243;28;20025;-83
2023/08/10 09:00:53;;;;;;;4.40;1.10;;;17.60;99.90;;;;;;5017086;28;20038;-81
2023/08/10 09:03:23;;;;;;;6.88;1.35;;;17.50;99.90;;;;;;5022743;28;20066;-81
2023/08/10 09:05:49;;;;;;;4.20;1.10;;;17.40;99.90;;;;;;5014929;28;20029;-82
2023/08/10 09:08:17;;;;;;;5.43;1.63;;;17.50;99.90;;;;;;5022851;28;20025;-84
2023/08/10 09:10:45;;;;;;;6.10;1.48;;;17.40;99.90;;;;;;5018529;28;20049;-84
2023/08/10 09:13:15;;;;;;;3.40;0.90;;;17.50;99.90;;;;;;5012816;28;20030;-82
2023/08/10 09:15:41;;;;;;;3.60;1.63;;;17.50;99.90;;;;;;5017119;28;20168;-82
2023/08/10 09:18:07;;;;;;;5.43;1.30;;;17.50;99.90;;;;;;5018337;28;20512;-84
2023/08/10 09:20:33;;;;;;;4.85;1.75;;;17.60;99.90;;;;;;5023347;28;20029;-84
2023/08/10 09:22:59;;;;;;;5.63;1.65;;;17.70;99.90;;;;;;5025892;28;20397;-83
2023/08/10 09:25:26;;;;;;;3.70;1.33;;;17.50;99.90;;;;;;5013349;28;20366;-82
2023/08/10 09:27:52;;;;;;;2.70;1.02;;;17.40;99.90;;;;;;5024401;28;20032;-81
2023/08/10 09:30:19;;;;;;;4.15;1.25;;;17.40;99.90;;;;;;5048496;28;20288;-81
2023/08/10 09:32:45;;;;;;;4.90;1.33;;;17.40;99.90;;;;;;5039772;28;20105;-83
2023/08/10 09:35:18;;;;;;;3.38;1.05;;;17.60;99.90;;;;;;5024293;28;20474;-82
2023/08/10 09:37:47;;;;;;;3.22;1.95;;;17.70;99.90;;;;;;5025320;28;20030;-84
2023/08/10 09:40:16;;;;;;;4.32;1.10;;;17.80;99.90;;;;;;5030892;28;20076;-83
2023/08/10 09:42:41;;;;;;;4.32;1.15;;;17.80;99.90;;;;;;5021533;28;20035;-84
2023/08/10 09:45:10;;;;;;;5.30;1.27;;;17.70;99.90;;;;;;5024144;28;20113;-84
2023/08/10 09:47:39;;;;;;;6.47;1.63;;;17.70;99.90;;;;;;5022712;28;20052;-84
2023/08/10 09:50:11;;;;;;;4.35;1.02;;;17.60;99.90;;;;;;5016927;28;20036;-84
2023/08/10 09:52:38;;;;;;;6.85;1.48;;;17.60;99.90;;;;;;5022077;28;20017;-83
2023/08/10 09:55:05;;;;;;;4.25;1.02;;;17.50;99.90;;;;;;5024538;28;20021;-83
2023/08/10 09:57:31;;;;;;;4.47;1.33;;;17.60;99.90;;;;;;5023110;28;20716;-83
2023/08/10 09:59:57;;;;;;;6.65;2.60;;;17.50;99.90;;;;;;5022083;28;20068;-84
2023/08/10 10:02:24;;;;;;;5.72;1.67;;;17.50;99.90;;;;;;5026099;28;20093;-81
2023/08/10 10:04:49;;;;;;;9.60;1.52;;;17.50;99.90;;;;;;5018392;28;20014;-80
2023/08/10 10:07:23;;;;;;;6.20;2.00;;;17.40;99.90;;;;;;5027269;28;20160;-83
2023/08/10 10:09:50;;;;;;;5.85;1.40;;;17.40;99.90;;;;;;5019010;28;20031;-83
2023/08/10 10:12:16;;;;;;;7.05;1.15;;;17.50;99.90;;;;;;5019715;28;20061;-83
2023/08/10 10:14:43;;;;;;;4.63;0.93;;;17.60;99.90;;;;;;5023479;28;20524;-83
2023/08/10 10:17:11;;;;;;;3.53;1.75;;;17.50;99.90;;;;;;5020368;28;20137;-82
2023/08/10 10:19:48;;;;;;;6.82;1.40;;;17.50;99.90;;;;;;5026748;28;20018;-83
2023/08/10 10:22:16;;;;;;;4.05;1.27;;;17.60;99.90;;;;;;5019405;28;20026;-83
2023/08/10 10:24:42;;;;;;;4.47;1.50;;;17.70;99.90;;;;;;5018450;28;20493;-82
2023/08/10 10:27:12;;;;;;;4.95;1.35;;;17.70;99.90;;;;;;5018690;28;20108;-83
2023/08/10 10:29:40;;;;;;;1.17;0.93;;;17.70;99.90;;;;;;5013684;28;20026;-83
2023/08/10 10:32:11;;;;;;;3.85;1.60;;;17.80;99.90;;;;;;5021652;28;20038;-82
2023/08/10 10:34:38;;;;;;;4.00;1.30;;;17.90;99.90;;;;;;5020063;28;20096;-84
2023/08/10 10:37:16;;;;;;;4.95;1.33;;;18.00;99.90;;;;;;5020856;28;20069;-82
2023/08/10 10:39:44;;;;;;;4.22;1.65;;;18.10;99.90;;;;;;5021981;28;20018;-83
2023/08/10 10:42:11;;;;;;;10.38;1.58;;;18.20;99.90;;;;;;5022131;28;20452;-82
2023/08/10 10:45:03;;;;;;;5.18;1.33;;;18.20;99.90;;;;;;5018872;28;20495;-82
2023/08/10 10:47:40;;;;;;;1.70;1.00;;;18.10;99.90;;;;;;5022188;28;20478;-80
2023/08/10 10:50:30;;;;;;;2.45;1.08;;;18.00;99.90;;;;;;5020918;28;20082;-81
2023/08/10 10:52:58;;;;;;;4.88;1.27;;;17.80;99.90;;;;;;5023001;28;20030;-84
2023/08/10 10:55:36;;;;;;;5.85;1.65;;;17.70;99.90;;;;;;5021280;28;20032;-84
2023/08/10 10:58:03;;;;;;;4.93;1.27;;;17.70;99.90;;;;;;5022975;28;20090;-83
2023/08/10 11:00:29;;;;;;;3.40;1.20;;;17.70;99.90;;;;;;5033643;28;20175;-80
2023/08/10 11:02:55;;;;;;;9.20;2.25;;;17.90;99.90;;;;;;5036635;28;20560;-82
2023/08/10 11:05:21;;;;;;;6.53;1.00;;;18.00;99.90;;;;;;5024427;28;20052;-82
2023/08/10 11:07:49;;;;;;;2.35;0.77;;;18.10;99.90;;;;;;5025056;28;20145;-83
2023/08/10 11:10:18;;;;;;;4.38;1.02;;;18.10;99.90;;;;;;5023773;28;20070;-83
2023/08/10 11:12:45;;;;;;;5.65;1.00;;;18.00;99.90;;;;;;5021996;28;20025;-83
2023/08/10 11:15:15;;;;;;;7.70;1.40;;;18.00;99.90;;;;;;5018877;28;20738;-84
2023/08/10 11:17:46;;;;;;;5.97;1.30;;;18.00;99.90;;;;;;5026230;28;20018;-82
2023/08/10 11:20:15;;;;;;;3.90;1.17;;;17.90;99.90;;;;;;5020192;28;20542;-82
2023/08/10 11:22:42;;;;;;;3.65;1.20;;;17.90;99.90;;;;;;5026046;28;20026;-82
2023/08/10 11:25:10;;;;;;;2.33;1.00;;;17.90;99.90;;;;;;5019238;28;20115;-82
2023/08/10 11:27:42;;;;;;;4.90;1.05;;;17.90;99.90;;;;;;5029707;28;20028;-81
2023/08/10 11:30:09;;;;;;;5.35;1.55;;;18.00;99.90;;;;;;5016640;28;20057;-82
2023/08/10 11:32:39;;;;;;;6.57;1.33;;;18.20;99.90;;;;;;5019386;28;20045;-82
2023/08/10 11:35:04;;;;;;;2.55;1.10;;;18.30;99.90;;;;;;5019687;28;20105;-82
2023/08/10 11:37:30;;;;;;;4.45;0.98;;;18.40;99.90;;;;;;5017926;28;20064;-82
2023/08/10 11:40:11;;;;;;;2.40;0.73;;;18.50;99.90;;;;;;5037894;28;20037;-81
2023/08/10 11:42:38;;;;;;;2.35;1.00;;;18.40;99.90;;;;;;5021838;28;20057;-83
2023/08/10 11:45:08;;;;;;;3.92;0.98;;;18.40;99.90;;;;;;5020374;28;20036;-82
2023/08/10 11:47:45;;;;;;;4.50;1.23;;;18.30;99.90;;;;;;5021594;28;20050;-83
2023/08/10 11:50:13;;;;;;;3.22;0.90;;;18.40;99.90;;;;;;5021453;28;20072;-80
2023/08/10 11:52:39;;;;;;;4.43;1.05;;;18.50;99.90;;;;;;5021137;28;20017;-82
2023/08/10 11:55:16;;;;;;;4.85;1.23;;;18.50;99.90;;;;;;5021153;28;20117;-82
2023/08/10 11:57:44;;;;;;;3.15;0.93;;;18.60;99.90;;;;;;5025091;28;20036;-83
2023/08/10 12:00:23;;;;;;;3.92;1.13;;;18.60;99.90;;;;;;5026314;28;20037;-82
2023/08/10 12:03:10;;;;;;;7.95;1.25;;;18.60;99.90;;;;;;5016147;28;20044;-83
2023/08/10 12:05:45;;;;;;;4.80;1.05;;;18.60;99.90;;;;;;5020796;28;20052;-82
2023/08/10 12:08:16;;;;;;;5.65;1.15;;;18.60;99.90;;;;;;5024087;28;20098;-82
2023/08/10 12:10:49;;;;;;;4.82;1.08;;;18.50;99.90;;;;;;5023312;28;20029;-81
2023/08/10 12:13:16;;;;;;;2.58;1.02;;;18.50;99.90;;;;;;5022372;28;20033;-80
2023/08/10 12:15:50;;;;;;;4.03;1.00;;;18.40;99.90;;;;;;5016800;28;20030;-83
2023/08/10 12:18:17;;;;;;;3.05;1.05;;;18.30;99.90;;;;;;5024871;28;20069;-81
2023/08/10 12:20:44;;;;;;;2.60;1.13;;;18.40;99.90;;;;;;5024970;28;20099;-83
2023/08/10 12:23:10;;;;;;;3.42;1.23;;;18.50;99.90;;;;;;5024316;28;20022;-82
2023/08/10 12:25:36;;;;;;;3.08;1.00;;;18.60;99.90;;;;;;5023299;28;20069;-83
2023/08/10 12:28:02;;;;;;;1.63;0.82;;;18.70;99.90;;;;;;5026617;28;20437;-81
2023/08/10 12:30:28;;;;;;;4.55;0.90;;;18.80;99.90;;;;;;5020907;28;20049;-81
2023/08/10 12:32:53;;;;;;;4.40;1.05;;;18.90;99.90;;;;;;5026484;28;20074;-81
2023/08/10 12:35:19;;;;;;;2.60;1.13;;;19.00;99.90;;;;;;5024054;28;20384;-81
2023/08/10 12:37:48;;;;;;;2.97;0.70;;;19.10;99.90;;;;;;5023627;28;20065;-80
2023/08/10 12:40:15;;;;;;;4.00;1.00;;;19.20;99.90;;;;;;5020751;28;20017;-82
2023/08/10 12:42:43;;;;;;;3.33;1.05;;;19.30;99.90;;;;;;5016943;28;20014;-82
2023/08/10 12:45:11;;;;;;;1.88;1.20;;;19.40;99.90;;;;;;5025286;28;20151;-82
2023/08/10 12:47:39;;;;;;;3.97;0.90;;;19.50;99.90;;;;;;5018375;28;20591;-82